sensor_id;sensor_type;location;lat;lon;timestamp;temperature;humidity
52209;DHT22;38507;53.132;6.394;2022-10-31T00:00:29;12.20;99.90
52209;DHT22;38507;53.132;6.394;2022-10-31T00:02:55;12.10;99.90
52209;DHT22;38507;53.132;6.394;2022-10-31T00:05:21;12.10;99.90
52209;DHT22;38507;53.132;6.394;2022-10-31T00:07:46;12.40;99.90
52209;DHT22;38507;53.132;6.394;2022-10-31T00:10:12;12.10;99.90
52209;DHT22;38507;53.132;6.394;2022-10-31T00:12:38;12.00;99.90
52209;DHT22;38507;53.132;6.394;2022-10-31T00:15:03;11.90;99.90
52209;DHT22;38507;53.132;6.394;2022-10-31T00:17:29;11.90;99.90
52209;DHT22;38507;53.132;6.394;2022-10-31T00:19:55;11.90;99.90
52209;DHT22;38507;53.132;6.394;2022-10-31T00:22:20;12.10;99.90
52209;DHT22;38507;53.132;6.394;2022-10-31T00:24:46;11.80;99.90
52209;DHT22;38507;53.132;6.394;2022-10-31T00:27:12;11.70;99.90
52209;DHT22;38507;53.132;6.394;2022-10-31T00:29:38;11.70;99.90
52209;DHT22;38507;53.132;6.394;2022-10-31T00:32:03;11.70;99.90
52209;DHT22;38507;53.132;6.394;2022-10-31T00:34:29;11.70;99.90
52209;DHT22;38507;53.132;6.394;2022-10-31T00:36:54;11.70;99.90
52209;DHT22;38507;53.132;6.394;2022-10-31T00:39:20;11.70;99.90
52209;DHT22;38507;53.132;6.394;2022-10-31T00:41:46;11.70;99.90
52209;DHT22;38507;53.132;6.394;2022-10-31T00:44:12;11.70;99.90
52209;DHT22;38507;53.132;6.394;2022-10-31T00:46:37;11.70;99.90
52209;DHT22;38507;53.132;6.394;2022-10-31T00:49:03;11.60;99.90
52209;DHT22;38507;53.132;6.394;2022-10-31T00:51:29;11.60;99.90
52209;DHT22;38507;53.132;6.394;2022-10-31T00:53:54;11.50;99.90
52209;DHT22;38507;53.132;6.394;2022-10-31T00:56:20;11.50;99.90
52209;DHT22;38507;53.132;6.394;2022-10-31T00:58:45;11.50;99.90
52209;DHT22;38507;53.132;6.394;2022-10-31T01:01:11;11.50;99.90
52209;DHT22;38507;53.132;6.394;2022-10-31T01:03:36;11.50;99.90
52209;DHT22;38507;53.132;6.394;2022-10-31T01:08:30;11.40;99.90
52209;DHT22;38507;53.132;6.394;2022-10-31T01:11:17;11.40;99.90
52209;DHT22;38507;53.132;6.394;2022-10-31T01:13:43;11.50;99.90
52209;DHT22;38507;53.132;6.394;2022-10-31T01:16:15;11.30;99.90
52209;DHT22;38507;53.132;6.394;2022-10-31T01:18:41;11.40;99.90
52209;DHT22;38507;53.132;6.394;2022-10-31T01:21:10;11.40;99.90
52209;DHT22;38507;53.132;6.394;2022-10-31T01:23:36;11.40;99.90
52209;DHT22;38507;53.132;6.394;2022-10-31T01:26:05;11.70;99.90
52209;DHT22;38507;53.132;6.394;2022-10-31T01:28:32;11.40;99.90
52209;DHT22;38507;53.132;6.394;2022-10-31T01:31:02;11.40;99.90
52209;DHT22;38507;53.132;6.394;2022-10-31T01:33:28;11.40;99.90
52209;DHT22;38507;53.132;6.394;2022-10-31T01:35:53;11.40;99.90
52209;DHT22;38507;53.132;6.394;2022-10-31T01:38:19;11.30;99.90
52209;DHT22;38507;53.132;6.394;2022-10-31T01:40:44;11.40;99.90
52209;DHT22;38507;53.132;6.394;2022-10-31T01:43:13;11.30;99.90
52209;DHT22;38507;53.132;6.394;2022-10-31T01:45:43;11.50;99.90
52209;DHT22;38507;53.132;6.394;2022-10-31T01:48:15;11.30;99.90
52209;DHT22;38507;53.132;6.394;2022-10-31T01:50:44;11.40;99.90
52209;DHT22;38507;53.132;6.394;2022-10-31T01:53:12;11.30;99.90
52209;DHT22;38507;53.132;6.394;2022-10-31T01:55:40;11.30;99.90
52209;DHT22;38507;53.132;6.394;2022-10-31T01:58:13;11.30;99.90
52209;DHT22;38507;53.132;6.394;2022-10-31T02:00:43;11.30;99.90
52209;DHT22;38507;53.132;6.394;2022-10-31T02:03:09;11.40;99.90
52209;DHT22;38507;53.132;6.394;2022-10-31T02:05:36;11.20;99.90
52209;DHT22;38507;53.132;6.394;2022-10-31T02:08:27;11.20;99.90
52209;DHT22;38507;53.132;6.394;2022-10-31T02:10:54;11.20;99.90
52209;DHT22;38507;53.132;6.394;2022-10-31T02:13:22;11.20;99.90
52209;DHT22;38507;53.132;6.394;2022-10-31T02:15:54;11.20;99.90
52209;DHT22;38507;53.132;6.394;2022-10-31T02:18:21;11.20;99.90
52209;DHT22;38507;53.132;6.394;2022-10-31T02:26:22;11.10;99.90
52209;DHT22;38507;53.132;6.394;2022-10-31T02:31:37;11.10;99.90
52209;DHT22;38507;53.132;6.394;2022-10-31T02:36:49;11.00;99.90
52209;DHT22;38507;53.132;6.394;2022-10-31T02:39:33;11.00;99.90
52209;DHT22;38507;53.132;6.394;2022-10-31T02:42:09;11.00;99.90
52209;DHT22;38507;53.132;6.394;2022-10-31T02:47:12;11.00;99.90
52209;DHT22;38507;53.132;6.394;2022-10-31T02:49:48;11.00;99.90
52209;DHT22;38507;53.132;6.394;2022-10-31T02:52:25;11.00;99.90
52209;DHT22;38507;53.132;6.394;2022-10-31T02:54:51;10.90;99.90
52209;DHT22;38507;53.132;6.394;2022-10-31T02:57:22;10.90;99.90
52209;DHT22;38507;53.132;6.394;2022-10-31T02:59:53;10.90;99.90
52209;DHT22;38507;53.132;6.394;2022-10-31T03:05:11;10.80;99.90
52209;DHT22;38507;53.132;6.394;2022-10-31T03:13:08;10.80;99.90
52209;DHT22;38507;53.132;6.394;2022-10-31T03:15:37;10.70;99.90
52209;DHT22;38507;53.132;6.394;2022-10-31T03:20:56;10.70;99.90
52209;DHT22;38507;53.132;6.394;2022-10-31T03:23:24;10.70;99.90
52209;DHT22;38507;53.132;6.394;2022-10-31T03:25:53;10.70;99.90
52209;DHT22;38507;53.132;6.394;2022-10-31T03:28:23;10.70;99.90
52209;DHT22;38507;53.132;6.394;2022-10-31T03:30:52;10.70;99.90
52209;DHT22;38507;53.132;6.394;2022-10-31T03:33:24;10.70;99.90
52209;DHT22;38507;53.132;6.394;2022-10-31T03:35:53;10.60;99.90
52209;DHT22;38507;53.132;6.394;2022-10-31T03:38:22;10.70;99.90
52209;DHT22;38507;53.132;6.394;2022-10-31T03:40:49;10.60;99.90
52209;DHT22;38507;53.132;6.394;2022-10-31T03:43:24;10.60;99.90
52209;DHT22;38507;53.132;6.394;2022-10-31T03:45:52;10.60;99.90
52209;DHT22;38507;53.132;6.394;2022-10-31T03:48:19;10.50;99.90
52209;DHT22;38507;53.132;6.394;2022-10-31T03:53:41;10.50;99.90
52209;DHT22;38507;53.132;6.394;2022-10-31T03:56:16;10.50;99.90
52209;DHT22;38507;53.132;6.394;2022-10-31T03:58:48;10.50;99.90
52209;DHT22;38507;53.132;6.394;2022-10-31T04:01:18;10.50;99.90
52209;DHT22;38507;53.132;6.394;2022-10-31T04:03:45;10.40;99.90
52209;DHT22;38507;53.132;6.394;2022-10-31T04:06:13;10.40;99.90
52209;DHT22;38507;53.132;6.394;2022-10-31T04:08:53;10.40;99.90
52209;DHT22;38507;53.132;6.394;2022-10-31T04:11:24;10.40;99.90
52209;DHT22;38507;53.132;6.394;2022-10-31T04:13:51;10.40;99.90
52209;DHT22;38507;53.132;6.394;2022-10-31T04:16:18;10.40;99.90
52209;DHT22;38507;53.132;6.394;2022-10-31T04:18:45;10.40;99.90
52209;DHT22;38507;53.132;6.394;2022-10-31T04:21:13;10.30;99.90
52209;DHT22;38507;53.132;6.394;2022-10-31T04:23:39;10.30;99.90
52209;DHT22;38507;53.132;6.394;2022-10-31T04:26:05;10.30;99.90
52209;DHT22;38507;53.132;6.394;2022-10-31T04:28:30;11.00;99.90
52209;DHT22;38507;53.132;6.394;2022-10-31T04:30:58;10.20;99.90
52209;DHT22;38507;53.132;6.394;2022-10-31T04:33:23;10.20;99.90
52209;DHT22;38507;53.132;6.394;2022-10-31T04:35:49;10.30;99.90
52209;DHT22;38507;53.132;6.394;2022-10-31T04:38:15;10.20;99.90
52209;DHT22;38507;53.132;6.394;2022-10-31T04:40:40;10.20;99.90
52209;DHT22;38507;53.132;6.394;2022-10-31T04:43:06;10.20;99.90
52209;DHT22;38507;53.132;6.394;2022-10-31T04:45:32;10.20;99.90
52209;DHT22;38507;53.132;6.394;2022-10-31T04:48:03;10.70;99.90
52209;DHT22;38507;53.132;6.394;2022-10-31T04:50:29;10.10;99.90
52209;DHT22;38507;53.132;6.394;2022-10-31T04:52:54;9.90;99.90
52209;DHT22;38507;53.132;6.394;2022-10-31T04:55:20;9.90;99.90
52209;DHT22;38507;53.132;6.394;2022-10-31T04:57:49;9.90;99.90
52209;DHT22;38507;53.132;6.394;2022-10-31T05:00:18;9.90;99.90
52209;DHT22;38507;53.132;6.394;2022-10-31T05:02:51;9.80;99.90
52209;DHT22;38507;53.132;6.394;2022-10-31T05:05:19;9.70;99.90
52209;DHT22;38507;53.132;6.394;2022-10-31T05:07:47;9.80;99.90
52209;DHT22;38507;53.132;6.394;2022-10-31T05:10:18;9.80;99.90
52209;DHT22;38507;53.132;6.394;2022-10-31T05:12:48;9.80;99.90
52209;DHT22;38507;53.132;6.394;2022-10-31T05:15:15;9.80;99.90
52209;DHT22;38507;53.132;6.394;2022-10-31T05:17:41;9.80;99.90
52209;DHT22;38507;53.132;6.394;2022-10-31T05:20:07;9.80;99.90
52209;DHT22;38507;53.132;6.394;2022-10-31T05:22:33;9.70;99.90
52209;DHT22;38507;53.132;6.394;2022-10-31T05:24:58;9.70;99.90
52209;DHT22;38507;53.132;6.394;2022-10-31T05:27:24;9.70;99.90
52209;DHT22;38507;53.132;6.394;2022-10-31T05:29:49;9.70;99.90
52209;DHT22;38507;53.132;6.394;2022-10-31T05:32:15;9.70;99.90
52209;DHT22;38507;53.132;6.394;2022-10-31T05:34:41;9.70;99.90
52209;DHT22;38507;53.132;6.394;2022-10-31T05:37:06;9.60;99.90
52209;DHT22;38507;53.132;6.394;2022-10-31T05:39:32;9.60;99.90
52209;DHT22;38507;53.132;6.394;2022-10-31T05:41:57;9.60;99.90
52209;DHT22;38507;53.132;6.394;2022-10-31T05:44:23;9.60;99.90
52209;DHT22;38507;53.132;6.394;2022-10-31T05:46:49;9.60;99.90
52209;DHT22;38507;53.132;6.394;2022-10-31T05:49:14;9.60;99.90
52209;DHT22;38507;53.132;6.394;2022-10-31T05:51:40;9.70;99.90
52209;DHT22;38507;53.132;6.394;2022-10-31T05:54:06;9.60;99.90
52209;DHT22;38507;53.132;6.394;2022-10-31T05:56:31;9.60;99.90
52209;DHT22;38507;53.132;6.394;2022-10-31T05:58:57;9.60;99.90
52209;DHT22;38507;53.132;6.394;2022-10-31T06:01:22;9.60;99.90
52209;DHT22;38507;53.132;6.394;2022-10-31T06:03:48;9.60;99.90
52209;DHT22;38507;53.132;6.394;2022-10-31T06:06:14;9.50;99.90
52209;DHT22;38507;53.132;6.394;2022-10-31T06:08:40;9.50;99.90
52209;DHT22;38507;53.132;6.394;2022-10-31T06:11:06;9.80;99.90
52209;DHT22;38507;53.132;6.394;2022-10-31T06:13:31;9.50;99.90
52209;DHT22;38507;53.132;6.394;2022-10-31T06:15:57;9.40;99.90
52209;DHT22;38507;53.132;6.394;2022-10-31T06:18:22;9.40;99.90
52209;DHT22;38507;53.132;6.394;2022-10-31T06:20:48;9.50;99.90
52209;DHT22;38507;53.132;6.394;2022-10-31T06:23:14;9.50;99.90
52209;DHT22;38507;53.132;6.394;2022-10-31T06:25:39;9.40;99.90
52209;DHT22;38507;53.132;6.394;2022-10-31T06:28:05;9.40;99.90
52209;DHT22;38507;53.132;6.394;2022-10-31T06:30:31;9.40;99.90
52209;DHT22;38507;53.132;6.394;2022-10-31T06:33:03;9.40;99.90
52209;DHT22;38507;53.132;6.394;2022-10-31T06:35:29;9.40;99.90
52209;DHT22;38507;53.132;6.394;2022-10-31T06:37:55;9.40;99.90
52209;DHT22;38507;53.132;6.394;2022-10-31T06:40:22;9.40;99.90
52209;DHT22;38507;53.132;6.394;2022-10-31T06:42:55;9.30;99.90
52209;DHT22;38507;53.132;6.394;2022-10-31T06:45:20;9.30;99.90
52209;DHT22;38507;53.132;6.394;2022-10-31T06:47:51;9.30;99.90
52209;DHT22;38507;53.132;6.394;2022-10-31T06:50:17;9.30;99.90
52209;DHT22;38507;53.132;6.394;2022-10-31T06:52:43;9.30;99.90
52209;DHT22;38507;53.132;6.394;2022-10-31T06:55:08;9.30;99.90
52209;DHT22;38507;53.132;6.394;2022-10-31T06:57:34;9.30;99.90
52209;DHT22;38507;53.132;6.394;2022-10-31T06:59:59;9.20;99.90
52209;DHT22;38507;53.132;6.394;2022-10-31T07:02:25;9.20;99.90
52209;DHT22;38507;53.132;6.394;2022-10-31T07:04:51;9.20;99.90
52209;DHT22;38507;53.132;6.394;2022-10-31T07:07:16;9.30;99.90
52209;DHT22;38507;53.132;6.394;2022-10-31T07:09:42;9.40;99.90
52209;DHT22;38507;53.132;6.394;2022-10-31T07:12:08;9.30;99.90
52209;DHT22;38507;53.132;6.394;2022-10-31T07:14:33;9.30;99.90
52209;DHT22;38507;53.132;6.394;2022-10-31T07:16:59;9.60;99.90
52209;DHT22;38507;53.132;6.394;2022-10-31T07:19:24;9.60;99.90
52209;DHT22;38507;53.132;6.394;2022-10-31T07:21:50;9.30;99.90
52209;DHT22;38507;53.132;6.394;2022-10-31T07:24:16;9.30;99.90
52209;DHT22;38507;53.132;6.394;2022-10-31T07:26:41;9.30;99.90
52209;DHT22;38507;53.132;6.394;2022-10-31T07:29:07;9.30;99.90
52209;DHT22;38507;53.132;6.394;2022-10-31T07:31:33;9.40;99.90
52209;DHT22;38507;53.132;6.394;2022-10-31T07:33:58;9.40;99.90
52209;DHT22;38507;53.132;6.394;2022-10-31T07:36:24;9.50;99.90
52209;DHT22;38507;53.132;6.394;2022-10-31T07:38:50;9.50;99.90
52209;DHT22;38507;53.132;6.394;2022-10-31T07:41:16;9.50;99.90
52209;DHT22;38507;53.132;6.394;2022-10-31T07:43:42;9.60;99.90
52209;DHT22;38507;53.132;6.394;2022-10-31T07:46:07;10.10;99.90
52209;DHT22;38507;53.132;6.394;2022-10-31T07:48:33;10.20;99.90
52209;DHT22;38507;53.132;6.394;2022-10-31T07:50:58;10.10;99.90
52209;DHT22;38507;53.132;6.394;2022-10-31T07:53:24;9.70;99.90
52209;DHT22;38507;53.132;6.394;2022-10-31T07:55:50;10.20;99.90
52209;DHT22;38507;53.132;6.394;2022-10-31T07:58:17;9.90;99.90
52209;DHT22;38507;53.132;6.394;2022-10-31T08:00:44;10.00;99.90
52209;DHT22;38507;53.132;6.394;2022-10-31T08:03:13;10.30;99.90
52209;DHT22;38507;53.132;6.394;2022-10-31T08:05:39;10.10;99.90
52209;DHT22;38507;53.132;6.394;2022-10-31T08:08:06;10.10;99.90
52209;DHT22;38507;53.132;6.394;2022-10-31T08:10:33;10.60;99.90
52209;DHT22;38507;53.132;6.394;2022-10-31T08:13:03;10.80;99.90
52209;DHT22;38507;53.132;6.394;2022-10-31T08:15:30;10.70;99.90
52209;DHT22;38507;53.132;6.394;2022-10-31T08:17:55;11.10;99.90
52209;DHT22;38507;53.132;6.394;2022-10-31T08:20:21;10.40;99.90
52209;DHT22;38507;53.132;6.394;2022-10-31T08:23:01;10.50;99.90
52209;DHT22;38507;53.132;6.394;2022-10-31T08:25:28;10.50;99.90
52209;DHT22;38507;53.132;6.394;2022-10-31T08:27:55;10.60;99.90
52209;DHT22;38507;53.132;6.394;2022-10-31T08:30:24;10.70;99.90
52209;DHT22;38507;53.132;6.394;2022-10-31T08:33:13;10.80;99.90
52209;DHT22;38507;53.132;6.394;2022-10-31T08:35:40;10.80;99.90
52209;DHT22;38507;53.132;6.394;2022-10-31T08:38:07;11.40;99.90
52209;DHT22;38507;53.132;6.394;2022-10-31T08:40:33;11.00;99.90
52209;DHT22;38507;53.132;6.394;2022-10-31T08:43:04;11.50;99.90
52209;DHT22;38507;53.132;6.394;2022-10-31T08:45:31;11.10;99.90
52209;DHT22;38507;53.132;6.394;2022-10-31T08:48:04;11.70;99.90
52209;DHT22;38507;53.132;6.394;2022-10-31T08:50:32;11.30;99.90
52209;DHT22;38507;53.132;6.394;2022-10-31T08:53:06;11.50;99.90
52209;DHT22;38507;53.132;6.394;2022-10-31T08:55:36;11.50;99.90
52209;DHT22;38507;53.132;6.394;2022-10-31T08:58:03;11.70;99.90
52209;DHT22;38507;53.132;6.394;2022-10-31T09:00:29;11.90;99.90
52209;DHT22;38507;53.132;6.394;2022-10-31T09:02:59;12.50;99.90
52209;DHT22;38507;53.132;6.394;2022-10-31T09:05:25;12.10;99.90
52209;DHT22;38507;53.132;6.394;2022-10-31T09:07:54;12.20;99.90
52209;DHT22;38507;53.132;6.394;2022-10-31T09:10:20;12.30;99.90
52209;DHT22;38507;53.132;6.394;2022-10-31T09:12:46;12.40;99.90
52209;DHT22;38507;53.132;6.394;2022-10-31T09:15:12;12.60;99.90
52209;DHT22;38507;53.132;6.394;2022-10-31T09:17:38;12.70;99.90
52209;DHT22;38507;53.132;6.394;2022-10-31T09:20:04;12.80;99.90
52209;DHT22;38507;53.132;6.394;2022-10-31T09:22:29;12.90;99.90
52209;DHT22;38507;53.132;6.394;2022-10-31T09:24:55;13.00;99.90
52209;DHT22;38507;53.132;6.394;2022-10-31T09:27:20;13.20;99.90
52209;DHT22;38507;53.132;6.394;2022-10-31T09:29:46;13.40;99.90
52209;DHT22;38507;53.132;6.394;2022-10-31T09:32:12;13.50;99.90
52209;DHT22;38507;53.132;6.394;2022-10-31T09:34:37;13.80;99.90
52209;DHT22;38507;53.132;6.394;2022-10-31T09:37:03;13.90;99.90
52209;DHT22;38507;53.132;6.394;2022-10-31T09:39:29;14.00;99.90
52209;DHT22;38507;53.132;6.394;2022-10-31T09:45:11;14.20;99.90
52209;DHT22;38507;53.132;6.394;2022-10-31T09:50:18;14.40;99.90
52209;DHT22;38507;53.132;6.394;2022-10-31T09:53:10;14.60;99.90
52209;DHT22;38507;53.132;6.394;2022-10-31T09:55:40;14.90;99.90
52209;DHT22;38507;53.132;6.394;2022-10-31T09:58:19;14.90;99.90
52209;DHT22;38507;53.132;6.394;2022-10-31T10:00:46;15.00;99.90
52209;DHT22;38507;53.132;6.394;2022-10-31T10:06:28;15.20;99.90
52209;DHT22;38507;53.132;6.394;2022-10-31T10:08:55;15.40;99.90
52209;DHT22;38507;53.132;6.394;2022-10-31T10:11:33;15.50;99.90
52209;DHT22;38507;53.132;6.394;2022-10-31T10:16:55;15.60;99.90
52209;DHT22;38507;53.132;6.394;2022-10-31T10:25:23;15.90;99.90
52209;DHT22;38507;53.132;6.394;2022-10-31T10:28:10;16.00;99.90
52209;DHT22;38507;53.132;6.394;2022-10-31T10:33:32;16.10;99.90
52209;DHT22;38507;53.132;6.394;2022-10-31T10:36:01;16.10;99.90
52209;DHT22;38507;53.132;6.394;2022-10-31T10:38:30;16.10;99.90
52209;DHT22;38507;53.132;6.394;2022-10-31T10:41:00;16.10;99.90
52209;DHT22;38507;53.132;6.394;2022-10-31T10:43:37;16.10;99.90
52209;DHT22;38507;53.132;6.394;2022-10-31T10:52:13;16.00;99.90
52209;DHT22;38507;53.132;6.394;2022-10-31T10:57:55;16.20;99.90
52209;DHT22;38507;53.132;6.394;2022-10-31T11:02:57;16.30;99.90
52209;DHT22;38507;53.132;6.394;2022-10-31T11:05:28;16.40;99.90
52209;DHT22;38507;53.132;6.394;2022-10-31T11:07:55;16.60;99.90
52209;DHT22;38507;53.132;6.394;2022-10-31T11:10:21;16.70;99.90
52209;DHT22;38507;53.132;6.394;2022-10-31T11:18:22;16.80;99.90
52209;DHT22;38507;53.132;6.394;2022-10-31T11:20:52;16.80;99.90
52209;DHT22;38507;53.132;6.394;2022-10-31T11:23:20;16.70;99.90
52209;DHT22;38507;53.132;6.394;2022-10-31T11:25:58;16.60;99.90
52209;DHT22;38507;53.132;6.394;2022-10-31T11:28:24;16.50;99.90
52209;DHT22;38507;53.132;6.394;2022-10-31T11:30:54;16.50;99.90
52209;DHT22;38507;53.132;6.394;2022-10-31T11:33:32;16.60;99.90
52209;DHT22;38507;53.132;6.394;2022-10-31T11:35:58;16.50;99.90
52209;DHT22;38507;53.132;6.394;2022-10-31T11:38:32;16.40;99.90
52209;DHT22;38507;53.132;6.394;2022-10-31T11:41:20;16.50;99.90
52209;DHT22;38507;53.132;6.394;2022-10-31T11:43:53;16.40;99.90
52209;DHT22;38507;53.132;6.394;2022-10-31T11:46:41;16.40;99.90
52209;DHT22;38507;53.132;6.394;2022-10-31T11:49:37;16.40;99.90
52209;DHT22;38507;53.132;6.394;2022-10-31T11:52:08;16.50;99.90
52209;DHT22;38507;53.132;6.394;2022-10-31T11:54:50;16.60;99.90
52209;DHT22;38507;53.132;6.394;2022-10-31T11:57:28;16.60;99.90
52209;DHT22;38507;53.132;6.394;2022-10-31T11:59:57;16.70;99.90
52209;DHT22;38507;53.132;6.394;2022-10-31T12:02:23;16.70;99.90
52209;DHT22;38507;53.132;6.394;2022-10-31T12:05:10;16.70;99.90
52209;DHT22;38507;53.132;6.394;2022-10-31T12:07:43;16.60;99.90
52209;DHT22;38507;53.132;6.394;2022-10-31T12:10:12;16.50;99.90
52209;DHT22;38507;53.132;6.394;2022-10-31T12:15:26;16.60;99.90
52209;DHT22;38507;53.132;6.394;2022-10-31T12:24:07;16.70;99.90
52209;DHT22;38507;53.132;6.394;2022-10-31T12:43:02;16.40;99.90
52209;DHT22;38507;53.132;6.394;2022-10-31T12:45:39;16.40;99.90
52209;DHT22;38507;53.132;6.394;2022-10-31T12:48:13;16.30;99.90
52209;DHT22;38507;53.132;6.394;2022-10-31T12:51:15;16.30;99.90
52209;DHT22;38507;53.132;6.394;2022-10-31T12:54:04;16.30;99.90
52209;DHT22;38507;53.132;6.394;2022-10-31T12:59:07;16.40;99.90
52209;DHT22;38507;53.132;6.394;2022-10-31T13:01:56;16.40;99.90
52209;DHT22;38507;53.132;6.394;2022-10-31T13:07:15;16.50;99.90
52209;DHT22;38507;53.132;6.394;2022-10-31T13:09:55;16.50;99.90
52209;DHT22;38507;53.132;6.394;2022-10-31T13:12:22;16.50;99.90
52209;DHT22;38507;53.132;6.394;2022-10-31T13:14:52;16.40;99.90
52209;DHT22;38507;53.132;6.394;2022-10-31T13:17:33;16.40;99.90
52209;DHT22;38507;53.132;6.394;2022-10-31T13:22:36;16.30;99.90
52209;DHT22;38507;53.132;6.394;2022-10-31T13:27:45;16.40;99.90
52209;DHT22;38507;53.132;6.394;2022-10-31T13:33:12;16.40;99.90
52209;DHT22;38507;53.132;6.394;2022-10-31T13:39:15;16.40;99.90
52209;DHT22;38507;53.132;6.394;2022-10-31T13:41:48;16.40;99.90
52209;DHT22;38507;53.132;6.394;2022-10-31T13:46:41;16.50;99.90
52209;DHT22;38507;53.132;6.394;2022-10-31T13:49:40;16.60;99.90
52209;DHT22;38507;53.132;6.394;2022-10-31T13:54:46;16.50;99.90
52209;DHT22;38507;53.132;6.394;2022-10-31T13:57:29;16.50;99.90
52209;DHT22;38507;53.132;6.394;2022-10-31T13:59:58;16.50;99.90
52209;DHT22;38507;53.132;6.394;2022-10-31T14:02:30;16.40;99.90
52209;DHT22;38507;53.132;6.394;2022-10-31T14:07:46;16.40;99.90
52209;DHT22;38507;53.132;6.394;2022-10-31T14:13:20;16.30;99.90
52209;DHT22;38507;53.132;6.394;2022-10-31T14:16:04;16.30;99.90
52209;DHT22;38507;53.132;6.394;2022-10-31T14:18:37;16.30;99.90
52209;DHT22;38507;53.132;6.394;2022-10-31T14:23:50;16.20;99.90
52209;DHT22;38507;53.132;6.394;2022-10-31T14:26:32;16.20;99.90
52209;DHT22;38507;53.132;6.394;2022-10-31T14:28:59;16.20;99.90
52209;DHT22;38507;53.132;6.394;2022-10-31T14:31:44;16.20;99.90
52209;DHT22;38507;53.132;6.394;2022-10-31T14:45:53;16.00;99.90
52209;DHT22;38507;53.132;6.394;2022-10-31T14:51:16;15.90;99.90
52209;DHT22;38507;53.132;6.394;2022-10-31T14:53:50;15.90;99.90
52209;DHT22;38507;53.132;6.394;2022-10-31T14:56:27;15.90;99.90
52209;DHT22;38507;53.132;6.394;2022-10-31T14:58:56;15.90;99.90
52209;DHT22;38507;53.132;6.394;2022-10-31T15:01:33;15.80;99.90
52209;DHT22;38507;53.132;6.394;2022-10-31T15:04:16;15.80;99.90
52209;DHT22;38507;53.132;6.394;2022-10-31T15:06:45;15.80;99.90
52209;DHT22;38507;53.132;6.394;2022-10-31T15:09:40;15.70;99.90
52209;DHT22;38507;53.132;6.394;2022-10-31T15:12:28;15.60;99.90
52209;DHT22;38507;53.132;6.394;2022-10-31T15:14:54;15.50;99.90
52209;DHT22;38507;53.132;6.394;2022-10-31T15:17:21;15.50;99.90
52209;DHT22;38507;53.132;6.394;2022-10-31T15:19:47;15.50;99.90
52209;DHT22;38507;53.132;6.394;2022-10-31T15:22:18;15.40;99.90
52209;DHT22;38507;53.132;6.394;2022-10-31T15:24:45;15.40;99.90
52209;DHT22;38507;53.132;6.394;2022-10-31T15:27:15;15.30;99.90
52209;DHT22;38507;53.132;6.394;2022-10-31T15:29:49;15.20;99.90
52209;DHT22;38507;53.132;6.394;2022-10-31T15:32:21;15.40;99.90
52209;DHT22;38507;53.132;6.394;2022-10-31T15:34:49;15.30;99.90
52209;DHT22;38507;53.132;6.394;2022-10-31T15:37:17;15.20;99.90
52209;DHT22;38507;53.132;6.394;2022-10-31T15:39:44;15.10;99.90
52209;DHT22;38507;53.132;6.394;2022-10-31T15:42:30;15.10;99.90
52209;DHT22;38507;53.132;6.394;2022-10-31T15:45:18;15.00;99.90
52209;DHT22;38507;53.132;6.394;2022-10-31T15:47:48;15.00;99.90
52209;DHT22;38507;53.132;6.394;2022-10-31T15:50:25;14.90;99.90
52209;DHT22;38507;53.132;6.394;2022-10-31T15:52:53;14.90;99.90
52209;DHT22;38507;53.132;6.394;2022-10-31T15:55:24;14.90;99.90
52209;DHT22;38507;53.132;6.394;2022-10-31T15:57:52;14.80;99.90
52209;DHT22;38507;53.132;6.394;2022-10-31T16:05:46;14.80;99.90
52209;DHT22;38507;53.132;6.394;2022-10-31T16:11:36;14.70;99.90
52209;DHT22;38507;53.132;6.394;2022-10-31T16:16:48;14.60;99.90
52209;DHT22;38507;53.132;6.394;2022-10-31T16:19:27;14.50;99.90
52209;DHT22;38507;53.132;6.394;2022-10-31T16:22:05;14.60;99.90
52209;DHT22;38507;53.132;6.394;2022-10-31T16:24:33;14.50;99.90
52209;DHT22;38507;53.132;6.394;2022-10-31T16:27:04;14.50;99.90
52209;DHT22;38507;53.132;6.394;2022-10-31T16:29:41;14.50;99.90
52209;DHT22;38507;53.132;6.394;2022-10-31T16:32:28;14.60;99.90
52209;DHT22;38507;53.132;6.394;2022-10-31T16:37:40;14.40;99.90
52209;DHT22;38507;53.132;6.394;2022-10-31T16:40:07;14.40;99.90
52209;DHT22;38507;53.132;6.394;2022-10-31T16:42:33;14.40;99.90
52209;DHT22;38507;53.132;6.394;2022-10-31T16:44:59;14.30;99.90
52209;DHT22;38507;53.132;6.394;2022-10-31T16:47:25;14.30;99.90
52209;DHT22;38507;53.132;6.394;2022-10-31T16:49:50;14.40;99.90
52209;DHT22;38507;53.132;6.394;2022-10-31T16:52:17;14.20;99.90
52209;DHT22;38507;53.132;6.394;2022-10-31T16:54:43;14.20;99.90
52209;DHT22;38507;53.132;6.394;2022-10-31T16:57:14;14.20;99.90
52209;DHT22;38507;53.132;6.394;2022-10-31T16:59:42;14.50;99.90
52209;DHT22;38507;53.132;6.394;2022-10-31T17:02:17;14.20;99.90
52209;DHT22;38507;53.132;6.394;2022-10-31T17:04:43;14.10;99.90
52209;DHT22;38507;53.132;6.394;2022-10-31T17:07:09;14.10;99.90
52209;DHT22;38507;53.132;6.394;2022-10-31T17:09:35;14.30;99.90
52209;DHT22;38507;53.132;6.394;2022-10-31T17:12:01;14.10;99.90
52209;DHT22;38507;53.132;6.394;2022-10-31T17:14:27;14.10;99.90
52209;DHT22;38507;53.132;6.394;2022-10-31T17:16:53;14.10;99.90
52209;DHT22;38507;53.132;6.394;2022-10-31T17:19:19;14.00;99.90
52209;DHT22;38507;53.132;6.394;2022-10-31T17:21:44;14.00;99.90
52209;DHT22;38507;53.132;6.394;2022-10-31T17:24:14;14.00;99.90
52209;DHT22;38507;53.132;6.394;2022-10-31T17:26:40;14.10;99.90
52209;DHT22;38507;53.132;6.394;2022-10-31T17:29:05;13.90;99.90
52209;DHT22;38507;53.132;6.394;2022-10-31T17:31:33;13.90;99.90
52209;DHT22;38507;53.132;6.394;2022-10-31T17:34:01;14.10;99.90
52209;DHT22;38507;53.132;6.394;2022-10-31T17:36:30;13.90;99.90
52209;DHT22;38507;53.132;6.394;2022-10-31T17:38:57;13.90;99.90
52209;DHT22;38507;53.132;6.394;2022-10-31T17:41:23;13.90;99.90
52209;DHT22;38507;53.132;6.394;2022-10-31T17:43:53;13.80;99.90
52209;DHT22;38507;53.132;6.394;2022-10-31T17:46:19;13.80;99.90
52209;DHT22;38507;53.132;6.394;2022-10-31T17:48:44;13.90;99.90
52209;DHT22;38507;53.132;6.394;2022-10-31T17:51:10;13.80;99.90
52209;DHT22;38507;53.132;6.394;2022-10-31T17:53:36;13.80;99.90
52209;DHT22;38507;53.132;6.394;2022-10-31T17:56:07;13.80;99.90
52209;DHT22;38507;53.132;6.394;2022-10-31T17:58:34;13.80;99.90
52209;DHT22;38507;53.132;6.394;2022-10-31T18:01:00;13.80;99.90
52209;DHT22;38507;53.132;6.394;2022-10-31T18:03:31;13.80;99.90
52209;DHT22;38507;53.132;6.394;2022-10-31T18:05:58;13.80;99.90
52209;DHT22;38507;53.132;6.394;2022-10-31T18:08:26;13.80;99.90
52209;DHT22;38507;53.132;6.394;2022-10-31T18:10:51;13.80;99.90
52209;DHT22;38507;53.132;6.394;2022-10-31T18:13:17;13.80;99.90
52209;DHT22;38507;53.132;6.394;2022-10-31T18:15:43;13.80;99.90
52209;DHT22;38507;53.132;6.394;2022-10-31T18:18:08;14.00;99.90
52209;DHT22;38507;53.132;6.394;2022-10-31T18:20:34;13.80;99.90